Mountain Park, Oregon
Current Conditions -  °F | °C
As of 6:53 PM on Monday 20 Oct 2014 (Local Time) from KUAO Reporting Station
Few Clouds Few Clouds  
Wind Chill: 57°   Ceiling: Unl
Heat Index: 57°   Visibility: 10mi
Dew Point: 52°   Wind: 5mph
Humidity: 83%   Direction: 190°S
Pressure: 29.83"   Gusts: NA
Location:  45.413°N, 122.725°W
Report Text: KUAO 210153Z AUTO 19004KT 10SM FEW080 14/11 A2983 RMK AO2 RAE03 SLP099 P0000 T01390111
Loading
Personal Weather Stations






























Interactive Weather Map
Tropical Storm Tracking
New forecast layout! Learn more

10-Day Weather Forecast

Advertisements
Track Severe Weather on mobile